Kisatchie, Louisiana
Current Conditions -  °F | °C
As of 4:56 PM on Monday 22 Dec 2014 (Local Time) from KAQV Reporting Station
Clear Clear  
Wind Chill: 68°   Ceiling: Unl
Heat Index: 68°   Visibility: 10mi
Dew Point: 60°   Wind: 5mph
Humidity: 76%   Direction: 210°SSW
Pressure: 29.58"   Gusts: NA
Location:  31.5208°N, 93.1217°W
Report Text: KAQV 222256Z AUTO 21004KT 10SM CLR 20/16 A2958 RMK AO2 SLP017 T02000156
Loading
Personal Weather Stations






























Interactive Weather Map New forecast layout! Learn more

10-Day Weather Forecast

Advertisements
Track Severe Weather on mobile